• Join FlightAware (Why Join?)
  • Login
  • US Flag 
09:11AM EDT


 

Airport Tracker/Info


-or-


 

Live Flight TrackerFlight Track Log ✈ N83413 ✈ 02-May-2013 ✈ KAHN - KASN

Flight Track Log - Related Links

Times and Time Zones

All times are in EDT time to prevent confusion due to time zone crossing. See the N83413 flight status page for this flight to view local times or setup timezone preferences in your user account.

Time Position Orientation Groundspeed Altitude Reporting Facility
EDT Latitude Longitude Course Direction KTS MPH feet Rate Location/Type
10:12AM 33.9500 -83.3000 345° North 133 153 1,800  Level Atlanta TRACON
10:13AM 34.0000 -83.3167 345° North 193 222 3,500 1,560 Climbing Atlanta TRACON
10:14AM 34.0094 -83.3672 283° West 213 245 4,900 1,740 Climbing Atlanta Center
10:15AM 34.0389 -83.4272 301° West 213 245 6,900 2,040 Climbing Atlanta Center
10:16AM 34.0914 -83.4544 337° Northwest 194 223 9,000 1,860 Climbing Atlanta Center
10:17AM 34.1417 -83.4817 336° Northwest 194 223 10,700 1,440 Climbing Atlanta Center
10:18AM 34.1981 -83.5114 336° Northwest 200 230 11,900 600 Climbing Atlanta Center
10:19AM 34.2358 -83.5714 307° West 215 247 12,000  Climbing Atlanta Center
10:20AM 34.2592 -83.6542 289° West 226 260 12,000  Level Atlanta Center
10:21AM 34.2822 -83.7397 288° West 253 291 12,000  Level Atlanta Center
10:22AM 34.3075 -83.8250 290° West 272 313 12,000  Level Atlanta Center
10:23AM 34.3347 -83.9081 292° West 272 313 12,000  Level Atlanta Center
10:24AM 34.3597 -83.9936 290° West 267 307 12,000  Level Atlanta Center
10:25AM 34.3892 -84.0714 295° West 267 307 12,000  Level Atlanta Center
10:26AM 34.4183 -84.1547 293° West 267 307 12,000  Level Atlanta Center
10:27AM 34.4433 -84.2328 291° West 267 307 12,000  Level Atlanta Center
10:28AM 34.4681 -84.3133 290° West 267 307 12,000  Level Atlanta Center
10:29AM 34.4931 -84.3967 290° West 262 302 12,000  Level Atlanta Center
10:30AM 34.4844 -84.4772 263° West 255 293 12,000  Level Atlanta Center
10:31AM 34.4589 -84.5578 249° West 250 288 12,000  Level Atlanta Center
10:32AM 34.4336 -84.6381 249° West 260 299 12,000  Level Atlanta Center
10:33AM 34.4081 -84.7236 250° West 265 305 12,000  Level Atlanta Center
10:34AM 34.3806 -84.8014 247° West 265 305 12,000  Level Atlanta Center
10:35AM 34.3569 -84.8842 251° West 265 305 12,000  Level Atlanta Center
10:36AM 34.3333 -84.9644 250° West 265 305 12,000 -600 Level Atlanta Center
10:37AM 34.3078 -85.0447 249° West 265 305 10,800 -1,440 Descending Atlanta Center
10:38AM 34.2842 -85.1325 252° West 260 299 9,200 -1,620 Descending Atlanta Center
10:39AM 34.2583 -85.2075 247° West 246 283 7,600 -1,560 Descending Atlanta Center
10:40AM 34.2347 -85.2800 249° West 236 272 6,100 -840 Descending Atlanta Center
10:41AM 34.2108 -85.3525 248° West 236 272 6,000 -60 Descending Atlanta Center
10:42AM 34.1894 -85.4225 250° West 236 272 6,000  Level Atlanta Center
10:43AM 34.1656 -85.5025 250° West 249 287 6,000  Level Atlanta Center
10:44AM 34.1394 -85.5822 248° West 249 287 6,000  Level Atlanta Center
10:45AM 34.1156 -85.6597 250° West 249 287 6,000  Level Atlanta Center
10:45AM 34.0981 -85.7069 246° West 257 296 6,000  Level Atlanta Center
10:46AM 34.0894 -85.7419 253° West 255 293 6,000  Level Atlanta Center
10:46AM 34.0678 -85.7967 244° Southwest 259 298 6,000  Level Atlanta Center
10:47AM 34.0631 -85.8192 256° West 248 285 6,000 -720 Level Atlanta Center
10:47AM 34.0436 -85.8764 248° West 253 291 5,300 -900 Descending Atlanta Center
10:48AM 34.0392 -85.8964 255° West 248 285 5,100 -360 Descending Atlanta Center
10:48AM 34.0194 -85.9461 244° Southwest 246 283 5,000 -120 Descending Atlanta Center
10:49AM 34.0128 -85.9736 254° West 248 285 5,000  Level Atlanta Center
10:49AM 33.9831 -86.0053 221° Southwest 232 267 5,000  Level Atlanta Center
10:50AM 33.9619 -86.0225 214° Southwest 235 270 5,000  Level Atlanta Center
10:50AM 33.9261 -86.0492 212° Southwest 233 268 5,000  Level Atlanta Center
10:51AM 33.9069 -86.0661 216° Southwest 235 270 5,000  Level Atlanta Center
10:51AM 33.8667 -86.1003 215° Southwest 237 273 5,000  Level Atlanta Center
10:52AM 33.8519 -86.1075 202° Southwest 235 270 5,000  Level Atlanta Center
10:52AM 33.8119 -86.1389 213° Southwest 238 274 5,000  Level Atlanta Center
10:53AM 33.7969 -86.1536 219° Southwest 241 277 5,000  Level Atlanta Center
10:53AM 33.7567 -86.1875 215° Southwest 238 274 5,000 -300 Level Atlanta Center
10:54AM 33.7419 -86.1972 209° Southwest 241 277 4,700 -1,020 Descending Atlanta Center
10:54AM 33.7039 -86.2311 217° Southwest 226 260 4,000 -720 Descending Atlanta Center
10:55AM 33.6911 -86.2383 205° Southwest 236 272 4,000  Level Atlanta Center
10:55AM 33.6594 -86.2625 212° Southwest 191 220 4,000  Level Atlanta Center
10:56AM 33.6147 -86.3014 216° Southwest 196 226 4,000 -60 Level Atlanta Center
10:57AM 33.5583 -86.3122 189° South 172 198 3,900 -300 Descending Atlanta Center
10:58AM 33.5147 -86.3011 168° South 156 180 3,400 -240 Descending Atlanta Center
10:59AM 33.4628 -86.2800 161° South 181 208 3,400  Level Atlanta Center
11:00AM 33.4300 -86.2517 144° Southeast 177 204 3,400  Level Atlanta Center
11:01AM 33.3972 -86.2183 140° Southeast 146 168 3,400  Level Atlanta Center